Time;durP1;ratioP1;P1;durP2;ratioP2;P2;SDS_P1;SDS_P2;PMS_P1;PMS_P2;Temp;Humidity;BMP_temperature;BMP_pressure;BME280_temperature;BME280_humidity;BME280_pressure;Samples;Min_cycle;Max_cycle;Signal;HPM_P1;HPM_P2
2021/03/17 00:01:29;;;;;;;6.43;5.50;;;;;;;4.42;81.99;95911.97;5015285;28;20285;-80
2021/03/17 00:03:56;;;;;;;6.43;4.67;;;;;;;4.49;81.71;95915.59;5015948;28;20229;-83
2021/03/17 00:06:22;;;;;;;6.53;5.00;;;;;;;4.49;82.89;95918.16;5016332;28;20221;-80
2021/03/17 00:08:48;;;;;;;6.37;4.87;;;;;;;4.54;82.09;95910.13;5016419;28;20207;-84
2021/03/17 00:11:14;;;;;;;8.77;5.10;;;;;;;4.55;82.08;95914.28;5015220;28;20317;-84
2021/03/17 00:13:41;;;;;;;5.80;4.87;;;;;;;4.60;82.56;95909.59;5015036;28;20233;-85
2021/03/17 00:16:07;;;;;;;6.60;5.40;;;;;;;4.54;82.73;95909.31;5015720;28;20233;-85
2021/03/17 00:18:33;;;;;;;7.77;5.67;;;;;;;4.59;82.59;95904.63;5015184;28;20300;-84
2021/03/17 00:21:00;;;;;;;5.73;5.13;;;;;;;4.61;82.38;95905.31;5015747;28;20258;-82
2021/03/17 00:23:26;;;;;;;6.43;5.77;;;;;;;4.51;83.05;95903.53;5014935;28;20245;-84
2021/03/17 00:25:52;;;;;;;5.97;5.07;;;;;;;4.54;82.47;95904.22;5014646;28;20734;-84
2021/03/17 00:28:18;;;;;;;6.93;5.37;;;;;;;4.50;82.60;95901.09;5015118;28;20230;-84
2021/03/17 00:30:44;;;;;;;6.20;5.40;;;;;;;4.55;82.58;95900.72;5015107;28;20286;-84
2021/03/17 00:33:14;;;;;;;7.23;5.17;;;;;;;4.65;82.32;95899.78;5015299;28;20642;-84
2021/03/17 00:35:41;;;;;;;8.00;5.87;;;;;;;4.72;82.03;95895.78;5015353;28;20203;-85
2021/03/17 00:38:09;;;;;;;8.17;5.37;;;;;;;4.78;81.89;95902.91;5015132;28;20581;-83
2021/03/17 00:40:35;;;;;;;6.70;4.90;;;;;;;4.80;81.51;95900.22;5015077;28;20297;-85
2021/03/17 00:43:01;;;;;;;4.53;3.77;;;;;;;4.78;80.76;95894.44;5014942;28;20230;-83
2021/03/17 00:45:28;;;;;;;5.87;3.70;;;;;;;4.79;80.79;95888.41;5014293;28;20229;-83
2021/03/17 00:47:54;;;;;;;3.60;3.27;;;;;;;4.79;80.16;95888.41;5015335;28;20214;-84
2021/03/17 00:50:21;;;;;;;4.00;3.47;;;;;;;4.71;80.63;95888.25;5015087;28;20222;-82
2021/03/17 00:52:47;;;;;;;5.03;3.43;;;;;;;4.59;80.75;95890.13;5014701;28;20285;-83
2021/03/17 00:55:14;;;;;;;4.80;3.63;;;;;;;4.54;80.98;95882.06;5014541;28;20242;-83
2021/03/17 00:57:41;;;;;;;3.90;3.53;;;;;;;4.58;80.77;95880.88;5014130;28;20230;-84
2021/03/17 01:00:09;;;;;;;6.17;4.27;;;;;;;4.58;81.09;95882.63;5014346;28;20242;-83
2021/03/17 01:02:35;;;;;;;4.07;3.60;;;;;;;4.58;80.81;95877.50;5014293;28;20219;-84
2021/03/17 01:05:01;;;;;;;4.57;3.93;;;;;;;4.58;80.61;95867.31;5014120;28;20227;-84
2021/03/17 01:07:27;;;;;;;4.63;3.90;;;;;;;4.53;81.01;95870.25;5014539;28;20261;-84
2021/03/17 01:09:53;;;;;;;4.70;4.27;;;;;;;4.47;81.29;95863.13;5013977;28;20230;-84
2021/03/17 01:12:20;;;;;;;4.67;4.17;;;;;;;4.45;81.55;95852.25;5014242;28;20235;-84
2021/03/17 01:14:46;;;;;;;5.30;4.60;;;;;;;4.45;81.72;95858.16;5014592;28;20205;-82
2021/03/17 01:17:12;;;;;;;4.53;4.13;;;;;;;4.43;81.62;95849.84;5014624;28;20717;-84
2021/03/17 01:19:39;;;;;;;5.10;4.57;;;;;;;4.45;81.38;95849.69;5014119;28;20233;-83
2021/03/17 01:22:06;;;;;;;6.03;4.70;;;;;;;4.45;81.45;95844.59;5013862;28;20725;-85
2021/03/17 01:24:32;;;;;;;5.20;4.70;;;;;;;4.44;81.30;95848.91;5014063;28;20222;-84
2021/03/17 01:26:58;;;;;;;4.80;4.30;;;;;;;4.38;82.52;95852.00;5013885;28;20210;-85
2021/03/17 01:29:25;;;;;;;4.73;4.33;;;;;;;4.45;81.96;95842.06;5013202;28;20793;-83
2021/03/17 01:31:51;;;;;;;6.63;5.03;;;;;;;4.47;81.61;95837.63;5013665;28;20227;-82
2021/03/17 01:34:17;;;;;;;4.97;4.47;;;;;;;4.48;81.54;95839.25;5013816;28;20238;-81
2021/03/17 01:36:43;;;;;;;6.50;5.47;;;;;;;4.49;81.64;95845.97;5014040;28;20256;-81
2021/03/17 01:39:09;;;;;;;5.77;5.20;;;;;;;4.47;81.92;95847.84;5013589;28;20214;-82
2021/03/17 01:41:35;;;;;;;8.73;5.43;;;;;;;4.37;82.20;95847.84;5013955;28;20233;-81
2021/03/17 01:44:01;;;;;;;6.53;5.37;;;;;;;4.33;82.99;95848.22;5013489;28;20230;-84
2021/03/17 01:46:28;;;;;;;6.63;6.03;;;;;;;4.31;82.81;95842.44;5012962;28;20227;-84
2021/03/17 01:48:54;;;;;;;6.87;5.33;;;;;;;4.27;82.68;95839.34;5013664;28;20234;-80
2021/03/17 01:51:20;;;;;;;6.60;5.70;;;;;;;4.26;82.91;95839.47;5013747;28;20226;-83
2021/03/17 01:53:47;;;;;;;5.87;5.07;;;;;;;4.30;83.07;95839.09;5014024;28;20229;-81
2021/03/17 01:56:13;;;;;;;5.70;5.20;;;;;;;4.38;82.60;95830.81;5013689;28;20227;-83
2021/03/17 01:58:40;;;;;;;5.07;4.60;;;;;;;4.43;81.72;95824.34;5013402;28;20231;-84
2021/03/17 02:01:06;;;;;;;5.53;4.97;;;;;;;4.45;82.01;95821.66;5013068;28;20608;-83
2021/03/17 02:03:33;;;;;;;5.00;4.50;;;;;;;4.48;81.68;95823.94;5013498;28;20231;-83
2021/03/17 02:05:59;;;;;;;4.60;4.07;;;;;;;4.48;81.38;95834.97;5013652;28;20227;-83
2021/03/17 02:08:31;;;;;;;4.40;3.73;;;;;;;4.41;81.44;95822.88;5013022;28;20245;-82
2021/03/17 02:10:57;;;;;;;4.20;3.80;;;;;;;4.42;81.78;95816.84;5012810;28;20222;-80
2021/03/17 02:14:03;;;;;;;3.67;3.37;;;;;;;4.47;81.46;95817.25;5012629;28;20230;-83
2021/03/17 02:16:32;;;;;;;3.53;3.23;;;;;;;4.39;81.31;95812.81;5013554;28;20238;-81
2021/03/17 02:19:36;;;;;;;3.60;3.30;;;;;;;4.13;83.59;95809.97;5012789;28;20249;-82
2021/03/17 02:22:28;;;;;;;4.23;3.83;;;;;;;4.14;83.63;95806.47;5010360;28;20218;-84
2021/03/17 02:25:00;;;;;;;4.20;3.80;;;;;;;4.17;83.51;95797.78;5013434;28;20226;-82
2021/03/17 02:27:51;;;;;;;3.53;3.23;;;;;;;4.03;84.19;95793.06;5013347;28;20199;-83
2021/03/17 02:30:56;;;;;;;3.93;3.53;;;;;;;4.07;84.23;95804.56;5013032;28;20276;-84
2021/03/17 02:33:45;;;;;;;3.40;3.10;;;;;;;4.08;84.13;95798.53;5008017;28;20280;-81
2021/03/17 02:36:14;;;;;;;3.40;3.10;;;;;;;4.13;84.44;95796.41;5013763;28;20293;-82
2021/03/17 02:38:45;;;;;;;3.23;2.97;;;;;;;4.14;83.68;95800.56;5013634;28;20206;-82
2021/03/17 02:41:14;;;;;;;3.47;3.17;;;;;;;4.11;84.03;95806.72;5012569;28;20744;-81
2021/03/17 02:43:43;;;;;;;3.60;3.20;;;;;;;4.16;83.80;95796.16;5012790;28;20234;-81
2021/03/17 02:46:14;;;;;;;3.53;3.23;;;;;;;4.21;83.51;95791.47;5012693;28;20728;-82
2021/03/17 02:48:45;;;;;;;3.70;3.40;;;;;;;4.29;83.54;95788.25;5012516;28;20223;-81
2021/03/17 02:51:18;;;;;;;3.93;3.53;;;;;;;4.35;82.79;95792.81;5012396;28;20322;-82
2021/03/17 02:53:46;;;;;;;4.30;3.90;;;;;;;4.39;82.78;95784.78;5012561;28;20230;-82
2021/03/17 02:56:14;;;;;;;5.50;4.10;;;;;;;4.44;82.46;95794.56;5012327;28;20222;-82
2021/03/17 02:58:44;;;;;;;4.80;4.40;;;;;;;4.47;82.06;95790.00;5011510;28;20233;-81
2021/03/17 03:01:14;;;;;;;4.80;4.17;;;;;;;4.51;81.64;95793.09;5012278;28;20257;-83
2021/03/17 03:03:42;;;;;;;4.70;4.30;;;;;;;4.51;81.95;95793.09;5012113;28;20214;-84
2021/03/17 03:06:10;;;;;;;5.10;4.60;;;;;;;4.52;81.61;95789.59;5012125;28;20257;-84
2021/03/17 03:08:39;;;;;;;6.97;4.73;;;;;;;4.46;82.38;95795.22;5012571;28;20209;-83
2021/03/17 03:11:06;;;;;;;7.13;4.63;;;;;;;4.41;82.20;95797.41;5011962;28;20226;-83
2021/03/17 03:13:34;;;;;;;5.13;4.63;;;;;;;4.40;82.30;95791.50;5012005;28;20230;-79
2021/03/17 03:16:01;;;;;;;5.03;4.53;;;;;;;4.39;82.28;95794.19;5011963;28;20215;-82
2021/03/17 03:18:27;;;;;;;5.47;4.97;;;;;;;4.41;82.42;95780.38;5011994;28;20206;-84
2021/03/17 03:20:56;;;;;;;6.03;5.43;;;;;;;4.45;82.65;95789.31;5012103;28;20208;-80
2021/03/17 03:23:23;;;;;;;6.00;5.40;;;;;;;4.47;82.20;95792.56;5011842;28;20584;-80
2021/03/17 03:25:51;;;;;;;6.73;5.20;;;;;;;4.46;82.31;95793.50;5011987;28;20230;-84
2021/03/17 03:28:20;;;;;;;6.00;5.40;;;;;;;4.48;82.05;95785.72;5012402;28;20233;-83
2021/03/17 03:30:49;;;;;;;6.23;5.53;;;;;;;4.49;81.82;95784.78;5011931;28;20605;-82
2021/03/17 03:33:17;;;;;;;6.63;6.00;;;;;;;4.45;82.14;95784.22;5012510;28;20262;-85
2021/03/17 03:35:43;;;;;;;6.80;5.73;;;;;;;4.41;82.52;95788.00;5012144;28;20199;-82
2021/03/17 03:38:11;;;;;;;6.37;5.77;;;;;;;4.40;82.70;95780.50;5011342;28;20226;-84
2021/03/17 03:40:38;;;;;;;6.60;6.00;;;;;;;4.45;82.56;95783.41;5011031;28;20237;-84
2021/03/17 03:43:05;;;;;;;6.10;5.50;;;;;;;4.41;82.65;95782.91;5011909;28;20234;-83
2021/03/17 03:45:31;;;;;;;6.50;5.80;;;;;;;4.37;82.63;95796.84;5012424;28;20225;-83
2021/03/17 03:47:57;;;;;;;7.30;6.43;;;;;;;4.40;82.42;95805.97;5012589;28;20674;-83
2021/03/17 03:50:25;;;;;;;7.10;6.07;;;;;;;4.37;82.55;95804.50;5011829;28;20230;-84
2021/03/17 03:53:02;;;;;;;7.27;6.57;;;;;;;4.36;82.29;95794.44;5011691;28;20274;-79
2021/03/17 03:55:36;;;;;;;6.57;5.83;;;;;;;4.33;82.96;95798.06;5011834;28;20226;-82
2021/03/17 03:58:07;;;;;;;5.70;5.10;;;;;;;4.34;82.12;95794.56;5012189;28;20713;-82
2021/03/17 04:00:34;;;;;;;5.17;4.40;;;;;;;4.37;82.24;95793.50;5011637;28;20234;-82
2021/03/17 04:03:01;;;;;;;4.63;4.23;;;;;;;4.36;82.13;95792.69;5011997;28;20222;-84
2021/03/17 04:05:34;;;;;;;4.50;4.10;;;;;;;4.38;82.14;95790.81;5011997;28;20246;-84
2021/03/17 04:08:06;;;;;;;4.30;3.90;;;;;;;4.35;82.81;95797.91;5013131;28;20227;-84
2021/03/17 04:10:34;;;;;;;4.30;3.73;;;;;;;4.35;82.07;95785.97;5016191;28;20233;-82
2021/03/17 04:13:05;;;;;;;4.20;3.80;;;;;;;4.33;82.17;95790.41;5017826;28;20629;-83
2021/03/17 04:15:33;;;;;;;3.83;3.53;;;;;;;4.33;82.28;95787.06;5016409;28;20234;-83
2021/03/17 04:18:04;;;;;;;3.83;3.43;;;;;;;4.29;82.04;95789.06;5016650;28;20210;-82
2021/03/17 04:20:35;;;;;;;4.10;3.70;;;;;;;4.22;82.70;95782.09;5015604;28;20234;-84
2021/03/17 04:23:05;;;;;;;4.27;3.87;;;;;;;4.18;82.84;95778.19;5016768;28;20238;-84
2021/03/17 04:25:33;;;;;;;4.10;3.70;;;;;;;4.22;83.12;95784.63;5017049;28;20234;-84
2021/03/17 04:28:01;;;;;;;3.70;3.27;;;;;;;4.24;83.03;95783.53;5016324;28;20231;-84
2021/03/17 04:30:28;;;;;;;4.30;3.87;;;;;;;4.24;83.49;95787.84;5014874;28;20494;-84
2021/03/17 04:32:56;;;;;;;4.17;3.77;;;;;;;4.20;83.36;95789.06;5016097;28;20285;-84
2021/03/17 04:35:22;;;;;;;3.83;3.53;;;;;;;4.17;83.79;95790.13;5015578;28;20230;-81
2021/03/17 04:37:50;;;;;;;4.50;4.10;;;;;;;4.18;83.78;95789.19;5014948;28;20236;-84
2021/03/17 04:40:17;;;;;;;5.10;3.97;;;;;;;4.25;83.07;95785.16;5015236;28;20227;-83
2021/03/17 04:42:45;;;;;;;5.23;4.27;;;;;;;4.28;82.60;95790.00;5014928;28;20230;-84
2021/03/17 04:45:13;;;;;;;5.43;3.90;;;;;;;4.28;82.99;95795.09;5014655;28;20606;-83
2021/03/17 04:47:41;;;;;;;5.00;4.27;;;;;;;4.16;83.59;95809.69;5015646;28;20217;-82
2021/03/17 04:50:11;;;;;;;4.33;3.93;;;;;;;4.21;83.69;95800.88;5014822;28;20235;-84
2021/03/17 04:52:38;;;;;;;4.10;3.70;;;;;;;4.22;83.30;95798.19;5015003;28;20241;-83
2021/03/17 04:55:06;;;;;;;4.10;3.70;;;;;;;4.23;83.67;95792.16;5014996;28;20229;-84
2021/03/17 04:57:35;;;;;;;4.20;3.80;;;;;;;4.30;83.31;95797.50;5014542;28;20880;-84
2021/03/17 05:00:04;;;;;;;4.67;4.10;;;;;;;4.18;84.03;95806.22;5015652;28;20202;-84
2021/03/17 05:02:31;;;;;;;5.27;4.13;;;;;;;4.15;84.04;95802.19;5013977;28;20227;-83
2021/03/17 05:04:58;;;;;;;4.60;3.80;;;;;;;4.12;84.48;95808.34;5014768;28;20234;-84
2021/03/17 05:07:26;;;;;;;4.57;3.70;;;;;;;4.10;85.23;95797.47;5014912;28;20222;-80
2021/03/17 05:09:53;;;;;;;4.70;4.20;;;;;;;4.17;84.70;95805.41;5015226;28;20223;-84
2021/03/17 05:12:21;;;;;;;4.60;4.10;;;;;;;4.22;84.32;95803.28;5014399;28;20227;-84
2021/03/17 05:14:48;;;;;;;5.13;4.67;;;;;;;4.28;84.51;95801.94;5012584;28;20199;-81
2021/03/17 05:17:18;;;;;;;5.43;4.50;;;;;;;4.28;83.50;95797.63;5013525;28;20223;-84
2021/03/17 05:19:44;;;;;;;7.80;5.40;;;;;;;4.22;84.05;95802.47;5013467;28;20300;-83
2021/03/17 05:22:12;;;;;;;5.93;4.70;;;;;;;4.24;83.52;95806.47;5013156;28;20674;-84
2021/03/17 05:24:38;;;;;;;6.10;5.50;;;;;;;4.23;84.21;95804.09;5013569;28;20245;-84
2021/03/17 05:27:08;;;;;;;6.10;5.50;;;;;;;4.20;83.99;95814.53;5014214;28;20210;-83
2021/03/17 05:29:38;;;;;;;5.87;5.37;;;;;;;4.20;84.05;95819.63;5014446;28;20226;-82
2021/03/17 05:32:06;;;;;;;6.63;5.77;;;;;;;4.21;84.22;95816.16;5013443;28;20235;-84
2021/03/17 05:34:35;;;;;;;6.37;5.77;;;;;;;4.21;84.34;95814.41;5013588;28;20234;-84
2021/03/17 05:37:01;;;;;;;6.77;6.13;;;;;;;4.11;84.73;95816.13;5013800;28;20222;-82
2021/03/17 05:39:27;;;;;;;17.87;13.87;;;;;;;4.15;84.60;95822.56;5012916;28;20655;-83
2021/03/17 05:41:53;;;;;;;14.73;12.67;;;;;;;4.09;85.85;95813.69;5013823;28;20222;-80
2021/03/17 05:44:20;;;;;;;8.67;7.77;;;;;;;4.11;86.16;95813.56;5013464;28;20235;-84
2021/03/17 05:46:48;;;;;;;7.87;7.07;;;;;;;4.21;84.53;95816.97;5013768;28;20237;-84
2021/03/17 05:49:14;;;;;;;8.27;6.77;;;;;;;4.19;85.14;95813.72;5012552;28;20251;-79
2021/03/17 05:51:42;;;;;;;9.13;6.43;;;;;;;4.25;84.54;95815.75;5011303;28;20245;-81
2021/03/17 05:54:10;;;;;;;7.00;6.27;;;;;;;4.31;84.37;95810.13;5013578;28;20728;-83
2021/03/17 05:56:36;;;;;;;7.00;6.10;;;;;;;4.30;83.78;95817.91;5012347;28;20580;-83
2021/03/17 05:59:02;;;;;;;8.30;6.97;;;;;;;4.30;83.46;95826.34;5013392;28;20226;-82
2021/03/17 06:01:29;;;;;;;7.90;7.10;;;;;;;4.28;83.84;95829.97;5010329;28;20297;-84
2021/03/17 06:03:55;;;;;;;7.80;6.67;;;;;;;4.22;84.76;95826.22;5009464;28;20223;-81
2021/03/17 06:06:23;;;;;;;7.80;6.93;;;;;;;4.24;85.32;95828.59;5010012;28;20207;-84
2021/03/17 06:08:55;;;;;;;7.33;6.50;;;;;;;4.22;84.57;95826.22;5009446;28;20207;-83
2021/03/17 06:11:22;;;;;;;8.57;7.13;;;;;;;4.21;85.13;95836.53;5011851;28;20239;-84
2021/03/17 06:13:50;;;;;;;9.23;7.03;;;;;;;4.21;85.71;95837.34;5012744;28;20231;-83
2021/03/17 06:16:19;;;;;;;7.33;6.63;;;;;;;4.17;85.18;95836.00;5013341;28;20234;-83
2021/03/17 06:18:50;;;;;;;8.20;7.40;;;;;;;4.21;84.20;95839.09;5012185;28;20272;-84
2021/03/17 06:21:18;;;;;;;10.10;7.53;;;;;;;4.13;86.10;95840.53;5011949;28;20203;-82
2021/03/17 06:23:44;;;;;;;8.43;7.50;;;;;;;4.20;85.52;95853.56;5012977;28;20199;-83
2021/03/17 06:26:11;;;;;;;41.20;30.27;;;;;;;4.27;84.70;95849.53;5012974;28;20231;-84
2021/03/17 06:28:39;;;;;;;14.47;12.43;;;;;;;4.31;84.16;95848.34;5013266;28;20342;-84
2021/03/17 06:31:05;;;;;;;11.77;8.60;;;;;;;4.31;84.28;95848.34;5012868;28;20233;-83
2021/03/17 06:33:31;;;;;;;9.80;7.70;;;;;;;4.41;83.62;95858.56;5012686;28;20226;-84
2021/03/17 06:36:25;;;;;;;10.27;8.30;;;;;;;4.42;83.38;95862.75;5013430;28;20225;-82
2021/03/17 06:39:04;;;;;;;9.40;8.40;;;;;;;4.37;84.29;95862.31;4966274;28;20229;-81
2021/03/17 06:41:42;;;;;;;9.27;8.27;;;;;;;4.36;84.20;95866.63;5012582;28;20298;-82
2021/03/17 06:44:09;;;;;;;10.90;8.10;;;;;;;4.41;83.46;95866.22;5012115;28;20219;-83
2021/03/17 06:46:35;;;;;;;12.07;8.00;;;;;;;4.34;84.01;95871.03;5012325;28;20229;-84
2021/03/17 06:49:01;;;;;;;8.83;7.90;;;;;;;4.26;84.20;95870.88;5012312;28;20223;-82
2021/03/17 06:51:30;;;;;;;10.57;8.10;;;;;;;4.34;84.01;95877.88;5011527;28;20661;-82
2021/03/17 06:53:57;;;;;;;9.93;8.70;;;;;;;4.40;83.66;95878.16;5013099;28;20226;-85
2021/03/17 06:56:26;;;;;;;12.00;8.27;;;;;;;4.51;82.96;95884.88;5011809;28;20237;-81
2021/03/17 06:58:55;;;;;;;10.53;8.03;;;;;;;4.57;83.29;95883.56;5012413;28;20230;-85
2021/03/17 07:01:33;;;;;;;10.40;8.30;;;;;;;4.59;82.90;95881.69;5012188;28;20238;-83
2021/03/17 07:04:00;;;;;;;13.77;9.13;;;;;;;4.61;82.31;95890.00;5012680;28;20223;-80
2021/03/17 07:06:27;;;;;;;9.90;8.67;;;;;;;4.55;83.20;95896.44;5011901;28;20210;-82
2021/03/17 07:08:53;;;;;;;12.50;9.37;;;;;;;4.54;83.38;95891.47;5012765;28;20202;-83
2021/03/17 07:11:25;;;;;;;11.00;9.00;;;;;;;4.51;83.25;95898.44;5013023;28;20322;-82
2021/03/17 07:13:57;;;;;;;12.80;9.40;;;;;;;4.51;83.51;95900.97;5012816;28;20226;-84
2021/03/17 07:16:35;;;;;;;24.10;15.83;;;;;;;4.51;83.35;95906.09;5012928;28;20230;-83
2021/03/17 07:19:02;;;;;;;28.67;23.00;;;;;;;4.57;83.05;95899.66;5008622;28;20222;-82
2021/03/17 07:21:36;;;;;;;18.27;13.87;;;;;;;4.61;82.83;95905.31;5012289;28;20257;-83
2021/03/17 07:24:03;;;;;;;11.90;10.30;;;;;;;4.62;82.55;95902.59;5013235;28;20189;-84
2021/03/17 07:26:30;;;;;;;11.57;9.53;;;;;;;4.66;82.52;95890.41;5012939;28;20345;-83
2021/03/17 07:29:12;;;;;;;12.17;9.63;;;;;;;4.66;82.45;95893.75;5011810;28;20234;-84
2021/03/17 07:31:40;;;;;;;12.70;9.80;;;;;;;4.71;82.53;95891.63;5012181;28;20233;-84
2021/03/17 07:34:22;;;;;;;15.77;9.97;;;;;;;4.83;81.55;95889.72;5011734;28;20223;-82
2021/03/17 07:36:52;;;;;;;15.10;10.57;;;;;;;4.85;82.74;95895.50;5011795;28;20709;-82
2021/03/17 07:39:20;;;;;;;7.70;6.47;;;;;;;5.19;90.58;95901.84;5013404;28;20209;-83
2021/03/17 07:41:48;;;;;;;8.43;5.93;;;;;;;5.59;92.27;95900.81;5012949;28;20226;-81
2021/03/17 07:44:16;;;;;;;9.43;8.53;;;;;;;5.87;82.98;95891.47;5012858;28;20296;-81
2021/03/17 07:46:45;;;;;;;10.23;9.13;;;;;;;5.91;77.79;95897.97;5016586;28;20238;-79
2021/03/17 07:49:11;;;;;;;11.13;8.93;;;;;;;5.99;75.63;95895.47;5015987;28;20230;-82
2021/03/17 07:51:42;;;;;;;11.30;8.83;;;;;;;5.90;76.33;95896.34;5015322;28;20232;-83
2021/03/17 07:54:09;;;;;;;16.70;13.07;;;;;;;5.64;76.82;95897.84;5016205;28;20230;-81
2021/03/17 07:56:38;;;;;;;12.70;10.97;;;;;;;5.63;76.25;95896.25;5015244;28;20241;-83
2021/03/17 07:59:06;;;;;;;11.93;9.60;;;;;;;5.76;75.66;95900.13;5015726;28;20320;-82
2021/03/17 08:01:33;;;;;;;9.43;8.43;;;;;;;5.90;75.03;95896.34;5015117;28;20238;-83
2021/03/17 08:04:01;;;;;;;9.80;7.83;;;;;;;6.56;72.59;95896.16;5015393;28;20237;-85
2021/03/17 08:06:28;;;;;;;9.90;7.93;;;;;;;7.30;69.49;95888.22;5014857;28;20234;-83
2021/03/17 08:08:58;;;;;;;10.80;7.77;;;;;;;7.85;67.90;95888.72;5015475;28;20209;-82
2021/03/17 08:11:25;;;;;;;9.87;7.43;;;;;;;8.17;66.82;95897.53;5015043;28;20227;-85
2021/03/17 08:13:52;;;;;;;9.60;7.80;;;;;;;8.40;65.36;95895.25;5015118;28;20227;-85
2021/03/17 08:16:20;;;;;;;8.70;6.87;;;;;;;7.98;65.31;95898.56;5013153;28;20237;-83
2021/03/17 08:18:49;;;;;;;7.57;6.87;;;;;;;7.36;65.80;95897.03;5014423;28;20839;-83
2021/03/17 08:21:35;;;;;;;10.03;7.00;;;;;;;6.88;68.25;95903.38;5014588;28;20203;-84
2021/03/17 08:24:01;;;;;;;8.20;7.17;;;;;;;6.68;67.83;95897.56;5015263;28;20203;-83
2021/03/17 08:26:45;;;;;;;8.20;7.20;;;;;;;6.85;68.58;95896.78;5015562;28;20226;-83
2021/03/17 08:29:14;;;;;;;9.07;7.37;;;;;;;7.23;67.07;95899.97;4995140;28;20238;-86
2021/03/17 08:31:51;;;;;;;10.67;7.00;;;;;;;6.91;67.71;95905.63;5007336;28;20728;-83
2021/03/17 08:34:29;;;;;;;9.97;7.13;;;;;;;6.66;67.62;95904.59;5014430;28;20254;-82
2021/03/17 08:36:58;;;;;;;11.50;7.10;;;;;;;6.64;68.38;95901.34;5014970;28;20449;-82
2021/03/17 08:39:40;;;;;;;8.30;7.10;;;;;;;6.70;69.08;95897.44;5014527;28;20293;-84
2021/03/17 08:42:07;;;;;;;10.43;7.73;;;;;;;6.91;69.58;95903.88;5015133;28;20305;-85
2021/03/17 08:44:46;;;;;;;10.40;7.60;;;;;;;7.51;68.18;95896.34;5014014;28;20290;-83
2021/03/17 08:47:20;;;;;;;8.53;6.77;;;;;;;7.74;65.36;95903.53;5014877;28;20230;-82
2021/03/17 08:49:49;;;;;;;10.43;7.00;;;;;;;8.02;64.71;95889.59;5014495;28;20230;-82
2021/03/17 08:52:17;;;;;;;7.93;6.70;;;;;;;7.52;63.43;95892.81;5014097;28;20257;-84
2021/03/17 08:54:52;;;;;;;8.47;7.33;;;;;;;7.12;66.34;95893.31;5014790;28;20226;-84
2021/03/17 08:57:19;;;;;;;30.43;22.57;;;;;;;7.37;66.86;95890.97;5013432;28;20729;-85
2021/03/17 08:59:46;;;;;;;24.90;19.80;;;;;;;7.34;67.10;95893.81;5014851;28;20210;-84
2021/03/17 09:02:37;;;;;;;14.17;9.60;;;;;;;7.35;67.32;95897.97;5014534;28;20230;-82
2021/03/17 09:05:04;;;;;;;8.77;7.47;;;;;;;7.15;66.96;95899.91;5013746;28;20233;-85
2021/03/17 09:07:32;;;;;;;9.97;7.90;;;;;;;6.96;66.54;95895.75;5013718;28;20227;-81
2021/03/17 09:10:08;;;;;;;10.43;7.83;;;;;;;6.86;67.51;95907.81;5014312;28;20250;-83
2021/03/17 09:12:47;;;;;;;9.43;7.93;;;;;;;7.08;66.65;95901.47;5014365;28;20233;-83
2021/03/17 09:15:15;;;;;;;12.23;8.03;;;;;;;7.09;67.27;95903.88;5014002;28;20580;-85
2021/03/17 09:17:43;;;;;;;9.67;8.20;;;;;;;6.91;68.57;95897.97;5015033;28;20209;-83
2021/03/17 09:20:14;;;;;;;10.00;8.03;;;;;;;6.77;68.33;95899.25;5013543;28;20230;-84
2021/03/17 09:22:46;;;;;;;10.73;7.70;;;;;;;6.51;68.83;95908.59;5014206;28;20241;-83
2021/03/17 09:25:25;;;;;;;9.73;8.00;;;;;;;6.41;70.21;95903.50;5014101;28;20238;-81
2021/03/17 09:27:54;;;;;;;9.77;7.63;;;;;;;6.33;71.30;95895.75;5013980;28;20227;-85
2021/03/17 09:30:22;;;;;;;9.83;8.33;;;;;;;6.38;70.83;95903.78;5013842;28;20199;-85
2021/03/17 09:32:50;;;;;;;12.07;8.13;;;;;;;6.41;70.79;95905.25;5014443;28;20284;-85
2021/03/17 09:35:18;;;;;;;9.60;7.80;;;;;;;6.43;70.27;95893.94;5013926;28;20714;-82
2021/03/17 09:37:44;;;;;;;9.27;6.80;;;;;;;6.40;69.50;95901.09;5013758;28;20272;-81
2021/03/17 09:40:15;;;;;;;11.33;7.60;;;;;;;6.28;70.56;95899.69;5013944;28;20237;-85
2021/03/17 09:42:41;;;;;;;10.40;7.73;;;;;;;6.27;71.64;95903.19;5014032;28;20286;-84
2021/03/17 09:45:09;;;;;;;13.07;9.03;;;;;;;6.21;72.72;95907.09;5014070;28;20213;-83
2021/03/17 09:47:37;;;;;;;10.87;7.90;;;;;;;6.19;72.82;95901.31;5013528;28;20604;-82
2021/03/17 09:50:13;;;;;;;9.23;7.80;;;;;;;6.16;73.66;95906.72;5012803;28;20222;-85
2021/03/17 09:52:43;;;;;;;8.37;7.23;;;;;;;6.20;73.17;95905.50;5013653;28;20238;-80
2021/03/17 09:55:32;;;;;;;9.17;7.10;;;;;;;6.26;73.25;95904.94;5013636;28;20269;-84
2021/03/17 09:58:03;;;;;;;8.10;6.57;;;;;;;6.36;72.97;95900.56;5007565;28;20228;-82
2021/03/17 10:00:29;;;;;;;7.47;6.70;;;;;;;6.49;72.60;95895.13;5012634;28;20218;-83
2021/03/17 10:02:57;;;;;;;8.20;5.83;;;;;;;6.65;72.26;95891.94;5013965;28;20241;-84
2021/03/17 10:05:23;;;;;;;9.00;6.53;;;;;;;7.07;70.75;95889.63;5013267;28;20261;-83
2021/03/17 10:07:51;;;;;;;8.67;6.83;;;;;;;7.61;69.13;95880.88;5012308;28;20231;-83
2021/03/17 10:10:18;;;;;;;8.20;6.80;;;;;;;7.45;66.27;95878.22;5013102;28;20226;-82
2021/03/17 10:12:44;;;;;;;8.87;7.50;;;;;;;7.24;67.56;95881.91;5013524;28;20233;-85
2021/03/17 10:15:13;;;;;;;25.17;18.63;;;;;;;7.08;66.48;95883.53;5013751;28;20801;-81
2021/03/17 10:17:40;;;;;;;10.23;8.57;;;;;;;7.03;67.41;95872.94;5014172;28;20586;-84
2021/03/17 10:20:09;;;;;;;8.47;7.60;;;;;;;6.93;67.12;95858.44;5012891;28;20235;-84
2021/03/17 10:22:35;;;;;;;8.67;7.13;;;;;;;6.86;67.20;95862.56;5010654;28;20234;-82
2021/03/17 10:25:07;;;;;;;10.83;7.70;;;;;;;7.09;67.91;95862.91;5011992;28;20223;-84
2021/03/17 10:27:35;;;;;;;9.53;8.23;;;;;;;7.61;66.95;95858.63;5012658;28;20227;-83
2021/03/17 10:30:08;;;;;;;9.60;7.83;;;;;;;8.07;67.15;95859.19;5012864;28;20202;-82
2021/03/17 10:32:36;;;;;;;9.53;7.47;;;;;;;8.41;63.24;95859.16;5012652;28;20336;-84
2021/03/17 10:35:05;;;;;;;8.30;7.50;;;;;;;8.74;62.20;95846.41;5012890;28;20249;-83
2021/03/17 10:37:31;;;;;;;8.73;7.07;;;;;;;8.94;60.42;95853.63;5012779;28;20680;-82
2021/03/17 10:40:08;;;;;;;9.77;7.60;;;;;;;9.12;58.68;95845.78;5013185;28;20223;-84
2021/03/17 10:42:34;;;;;;;9.47;7.40;;;;;;;9.31;57.95;95842.06;5013206;28;20235;-85
2021/03/17 10:45:04;;;;;;;8.03;6.73;;;;;;;9.47;56.79;95842.06;5013694;28;20261;-84
2021/03/17 10:47:30;;;;;;;8.27;7.27;;;;;;;9.41;57.21;95836.78;5013336;28;20231;-84
2021/03/17 10:49:56;;;;;;;7.03;6.33;;;;;;;9.11;53.06;95836.47;5012413;28;20226;-84
2021/03/17 10:52:32;;;;;;;7.47;6.53;;;;;;;8.80;57.17;95844.00;5012350;28;20233;-84
2021/03/17 10:55:09;;;;;;;7.93;7.17;;;;;;;8.58;56.11;95832.59;5012619;28;20237;-85
2021/03/17 10:57:36;;;;;;;34.07;27.50;;;;;;;8.46;58.91;95830.47;5012463;28;20222;-81
2021/03/17 11:00:12;;;;;;;16.93;11.80;;;;;;;8.25;59.07;95839.38;5013209;28;20236;-80
2021/03/17 11:02:38;;;;;;;8.27;6.10;;;;;;;8.03;57.81;95832.25;5012822;28;20219;-81
2021/03/17 11:05:23;;;;;;;5.90;5.30;;;;;;;7.84;56.98;95837.59;5013155;28;20314;-81
2021/03/17 11:07:51;;;;;;;6.60;5.40;;;;;;;7.61;56.42;95833.00;5010010;28;20295;-82
2021/03/17 11:13:49;;;;;;;7.27;5.97;;;;;;;7.37;59.66;95834.59;5039764;23;20222;-84
2021/03/17 11:19:46;;;;;;;6.90;6.20;;;;;;;7.47;60.92;95837.88;4978947;28;20235;-84
2021/03/17 11:22:12;;;;;;;7.10;6.40;;;;;;;7.41;60.52;95849.53;5032778;28;20260;-83
2021/03/17 11:24:38;;;;;;;9.60;6.50;;;;;;;7.26;61.48;95840.78;5031976;28;20313;-82
2021/03/17 11:27:05;;;;;;;6.93;5.73;;;;;;;7.06;61.17;95829.94;5032392;28;20219;-82
2021/03/17 11:29:33;;;;;;;5.53;4.47;;;;;;;6.89;59.91;95838.44;5031991;28;20248;-84
2021/03/17 11:32:06;;;;;;;4.83;4.20;;;;;;;6.95;58.99;95835.25;5031680;28;20233;-85
2021/03/17 11:34:31;;;;;;;5.50;3.80;;;;;;;7.08;57.95;95838.25;5031976;28;20240;-84
2021/03/17 11:36:57;;;;;;;5.00;3.57;;;;;;;7.13;60.16;95843.72;5031864;28;20221;-83
2021/03/17 11:39:23;;;;;;;4.20;3.73;;;;;;;6.99;60.87;95844.25;5031756;28;20356;-84
2021/03/17 11:41:50;;;;;;;4.10;3.20;;;;;;;6.86;61.68;95849.75;5032618;28;20225;-82
2021/03/17 11:44:18;;;;;;;4.50;3.50;;;;;;;6.77;62.05;95847.25;5032250;28;20225;-85
2021/03/17 11:46:45;;;;;;;11.63;8.83;;;;;;;6.45;63.95;95845.22;5031487;28;20240;-84
2021/03/17 11:49:11;;;;;;;7.77;5.47;;;;;;;6.23;64.89;95856.63;5031355;28;20279;-84
2021/03/17 11:51:38;;;;;;;5.83;3.77;;;;;;;6.02;67.01;95848.41;5031004;28;20607;-84
2021/03/17 11:54:04;;;;;;;4.13;3.13;;;;;;;6.09;66.96;95862.22;5031786;28;20253;-84
2021/03/17 11:56:30;;;;;;;4.47;3.10;;;;;;;6.04;67.88;95859.28;5030750;28;20230;-81